sensor_id;sensor_type;location;lat;lon;timestamp;P1;durP1;ratioP1;P2;durP2;ratioP2
3901;SDS011;1966;49.908;9.156;2023-06-22T00:04:02;11.53;;;10.33;;
3901;SDS011;1966;49.908;9.156;2023-06-22T00:09:01;12.80;;;9.60;;
3901;SDS011;1966;49.908;9.156;2023-06-22T00:14:02;10.33;;;9.27;;
3901;SDS011;1966;49.908;9.156;2023-06-22T00:19:02;10.90;;;8.73;;
3901;SDS011;1966;49.908;9.156;2023-06-22T00:24:02;9.87;;;8.47;;
3901;SDS011;1966;49.908;9.156;2023-06-22T00:29:02;10.93;;;8.83;;
3901;SDS011;1966;49.908;9.156;2023-06-22T00:34:02;9.60;;;8.60;;
3901;SDS011;1966;49.908;9.156;2023-06-22T00:39:01;9.43;;;7.83;;
3901;SDS011;1966;49.908;9.156;2023-06-22T00:44:02;14.00;;;11.67;;
3901;SDS011;1966;49.908;9.156;2023-06-22T00:49:01;12.50;;;10.33;;
3901;SDS011;1966;49.908;9.156;2023-06-22T00:54:03;12.60;;;9.70;;
3901;SDS011;1966;49.908;9.156;2023-06-22T00:59:05;15.30;;;11.30;;
3901;SDS011;1966;49.908;9.156;2023-06-22T01:04:04;15.03;;;10.23;;
3901;SDS011;1966;49.908;9.156;2023-06-22T01:09:06;14.37;;;10.30;;
3901;SDS011;1966;49.908;9.156;2023-06-22T01:14:10;10.93;;;9.77;;
3901;SDS011;1966;49.908;9.156;2023-06-22T01:19:16;11.10;;;9.90;;
3901;SDS011;1966;49.908;9.156;2023-06-22T01:24:18;13.10;;;10.67;;
3901;SDS011;1966;49.908;9.156;2023-06-22T01:29:22;13.60;;;11.40;;
3901;SDS011;1966;49.908;9.156;2023-06-22T01:34:23;11.90;;;9.90;;
3901;SDS011;1966;49.908;9.156;2023-06-22T01:39:22;11.77;;;10.17;;
3901;SDS011;1966;49.908;9.156;2023-06-22T01:44:23;15.73;;;9.90;;
3901;SDS011;1966;49.908;9.156;2023-06-22T01:49:23;19.27;;;10.87;;
3901;SDS011;1966;49.908;9.156;2023-06-22T01:54:22;12.23;;;10.63;;
3901;SDS011;1966;49.908;9.156;2023-06-22T01:59:25;16.67;;;11.67;;
3901;SDS011;1966;49.908;9.156;2023-06-22T02:04:26;12.43;;;10.53;;
3901;SDS011;1966;49.908;9.156;2023-06-22T02:09:28;16.50;;;13.17;;
3901;SDS011;1966;49.908;9.156;2023-06-22T02:14:29;13.93;;;12.07;;
3901;SDS011;1966;49.908;9.156;2023-06-22T02:19:28;13.23;;;11.60;;
3901;SDS011;1966;49.908;9.156;2023-06-22T02:24:31;12.93;;;11.70;;
3901;SDS011;1966;49.908;9.156;2023-06-22T02:29:32;12.83;;;11.47;;
3901;SDS011;1966;49.908;9.156;2023-06-22T02:34:31;12.80;;;10.97;;
3901;SDS011;1966;49.908;9.156;2023-06-22T02:39:31;17.97;;;11.13;;
3901;SDS011;1966;49.908;9.156;2023-06-22T02:44:32;11.87;;;10.67;;
3901;SDS011;1966;49.908;9.156;2023-06-22T02:49:31;12.87;;;10.90;;
3901;SDS011;1966;49.908;9.156;2023-06-22T02:54:31;12.50;;;11.20;;
3901;SDS011;1966;49.908;9.156;2023-06-22T02:59:32;11.63;;;10.40;;
3901;SDS011;1966;49.908;9.156;2023-06-22T03:04:31;11.90;;;10.63;;
3901;SDS011;1966;49.908;9.156;2023-06-22T03:09:31;12.40;;;11.00;;
3901;SDS011;1966;49.908;9.156;2023-06-22T03:14:30;11.60;;;10.40;;
3901;SDS011;1966;49.908;9.156;2023-06-22T03:19:30;13.70;;;11.83;;
3901;SDS011;1966;49.908;9.156;2023-06-22T03:24:30;11.83;;;10.63;;
3901;SDS011;1966;49.908;9.156;2023-06-22T03:29:29;11.27;;;10.10;;
3901;SDS011;1966;49.908;9.156;2023-06-22T03:34:28;13.13;;;11.20;;
3901;SDS011;1966;49.908;9.156;2023-06-22T03:39:33;12.93;;;11.40;;
3901;SDS011;1966;49.908;9.156;2023-06-22T03:44:32;13.73;;;11.30;;
3901;SDS011;1966;49.908;9.156;2023-06-22T03:49:33;13.80;;;10.80;;
3901;SDS011;1966;49.908;9.156;2023-06-22T03:54:34;13.87;;;10.97;;
3901;SDS011;1966;49.908;9.156;2023-06-22T03:59:33;16.23;;;10.57;;
3901;SDS011;1966;49.908;9.156;2023-06-22T04:04:33;11.97;;;10.67;;
3901;SDS011;1966;49.908;9.156;2023-06-22T04:09:34;12.90;;;10.60;;
3901;SDS011;1966;49.908;9.156;2023-06-22T04:14:33;15.20;;;12.27;;
3901;SDS011;1966;49.908;9.156;2023-06-22T04:19:33;12.13;;;10.80;;
3901;SDS011;1966;49.908;9.156;2023-06-22T04:24:32;13.33;;;11.20;;
3901;SDS011;1966;49.908;9.156;2023-06-22T04:29:32;11.87;;;10.67;;
3901;SDS011;1966;49.908;9.156;2023-06-22T04:34:32;13.10;;;11.33;;
3901;SDS011;1966;49.908;9.156;2023-06-22T04:39:31;17.27;;;10.90;;
3901;SDS011;1966;49.908;9.156;2023-06-22T04:44:30;14.13;;;11.60;;
3901;SDS011;1966;49.908;9.156;2023-06-22T04:49:32;13.87;;;11.23;;
3901;SDS011;1966;49.908;9.156;2023-06-22T04:54:32;15.20;;;11.27;;
3901;SDS011;1966;49.908;9.156;2023-06-22T04:59:31;17.83;;;12.20;;
3901;SDS011;1966;49.908;9.156;2023-06-22T05:04:32;13.97;;;11.60;;
3901;SDS011;1966;49.908;9.156;2023-06-22T05:09:33;13.57;;;11.00;;
3901;SDS011;1966;49.908;9.156;2023-06-22T05:14:32;13.60;;;11.97;;
3901;SDS011;1966;49.908;9.156;2023-06-22T05:19:33;12.80;;;10.57;;
3901;SDS011;1966;49.908;9.156;2023-06-22T05:24:32;13.33;;;11.93;;
3901;SDS011;1966;49.908;9.156;2023-06-22T05:29:31;15.30;;;10.67;;
3901;SDS011;1966;49.908;9.156;2023-06-22T05:34:32;13.40;;;10.70;;
3901;SDS011;1966;49.908;9.156;2023-06-22T05:39:31;11.00;;;9.90;;
3901;SDS011;1966;49.908;9.156;2023-06-22T05:44:31;12.90;;;11.40;;
3901;SDS011;1966;49.908;9.156;2023-06-22T05:49:32;13.47;;;10.93;;
3901;SDS011;1966;49.908;9.156;2023-06-22T05:54:32;13.00;;;9.80;;
3901;SDS011;1966;49.908;9.156;2023-06-22T05:59:31;13.00;;;11.60;;
3901;SDS011;1966;49.908;9.156;2023-06-22T06:04:30;13.33;;;11.70;;
3901;SDS011;1966;49.908;9.156;2023-06-22T06:09:31;13.13;;;11.63;;
3901;SDS011;1966;49.908;9.156;2023-06-22T06:14:30;11.80;;;10.60;;
3901;SDS011;1966;49.908;9.156;2023-06-22T06:19:29;14.10;;;11.00;;
3901;SDS011;1966;49.908;9.156;2023-06-22T06:24:28;13.40;;;11.97;;
3901;SDS011;1966;49.908;9.156;2023-06-22T06:29:29;12.30;;;11.00;;
3901;SDS011;1966;49.908;9.156;2023-06-22T06:34:28;11.70;;;10.57;;
3901;SDS011;1966;49.908;9.156;2023-06-22T06:39:27;11.50;;;10.27;;
3901;SDS011;1966;49.908;9.156;2023-06-22T06:44:27;14.87;;;11.83;;
3901;SDS011;1966;49.908;9.156;2023-06-22T06:49:27;13.17;;;11.67;;
3901;SDS011;1966;49.908;9.156;2023-06-22T06:54:27;11.73;;;10.63;;
3901;SDS011;1966;49.908;9.156;2023-06-22T06:59:26;11.63;;;10.47;;
3901;SDS011;1966;49.908;9.156;2023-06-22T07:04:28;12.83;;;11.53;;
3901;SDS011;1966;49.908;9.156;2023-06-22T07:09:27;13.70;;;11.80;;
3901;SDS011;1966;49.908;9.156;2023-06-22T07:14:26;13.23;;;11.93;;
3901;SDS011;1966;49.908;9.156;2023-06-22T07:19:26;15.33;;;11.57;;
3901;SDS011;1966;49.908;9.156;2023-06-22T07:24:27;11.33;;;10.23;;
3901;SDS011;1966;49.908;9.156;2023-06-22T07:29:26;12.83;;;11.53;;
3901;SDS011;1966;49.908;9.156;2023-06-22T07:34:25;12.10;;;10.87;;
3901;SDS011;1966;49.908;9.156;2023-06-22T07:39:26;12.47;;;11.03;;
3901;SDS011;1966;49.908;9.156;2023-06-22T07:44:26;11.73;;;10.60;;
3901;SDS011;1966;49.908;9.156;2023-06-22T07:49:25;11.10;;;10.00;;
3901;SDS011;1966;49.908;9.156;2023-06-22T07:54:24;12.93;;;10.30;;
3901;SDS011;1966;49.908;9.156;2023-06-22T07:59:25;9.70;;;8.80;;
3901;SDS011;1966;49.908;9.156;2023-06-22T08:04:24;10.70;;;9.07;;
3901;SDS011;1966;49.908;9.156;2023-06-22T08:09:25;10.93;;;9.03;;
3901;SDS011;1966;49.908;9.156;2023-06-22T08:14:26;10.80;;;9.27;;
3901;SDS011;1966;49.908;9.156;2023-06-22T08:19:25;12.00;;;8.63;;
3901;SDS011;1966;49.908;9.156;2023-06-22T08:24:24;10.17;;;9.17;;
3901;SDS011;1966;49.908;9.156;2023-06-22T08:29:23;11.13;;;8.70;;
3901;SDS011;1966;49.908;9.156;2023-06-22T08:34:24;9.83;;;8.93;;
3901;SDS011;1966;49.908;9.156;2023-06-22T08:39:25;9.80;;;8.80;;
3901;SDS011;1966;49.908;9.156;2023-06-22T08:44:25;12.03;;;9.30;;
3901;SDS011;1966;49.908;9.156;2023-06-22T08:49:26;9.80;;;8.87;;
3901;SDS011;1966;49.908;9.156;2023-06-22T08:54:25;10.87;;;9.77;;
3901;SDS011;1966;49.908;9.156;2023-06-22T08:59:25;10.10;;;9.20;;
3901;SDS011;1966;49.908;9.156;2023-06-22T09:04:24;9.80;;;8.80;;
3901;SDS011;1966;49.908;9.156;2023-06-22T09:09:24;11.43;;;9.60;;
3901;SDS011;1966;49.908;9.156;2023-06-22T09:14:24;9.60;;;8.50;;
3901;SDS011;1966;49.908;9.156;2023-06-22T09:19:23;9.90;;;8.90;;
3901;SDS011;1966;49.908;9.156;2023-06-22T09:24:22;9.70;;;8.83;;
3901;SDS011;1966;49.908;9.156;2023-06-22T09:29:24;10.13;;;9.20;;
3901;SDS011;1966;49.908;9.156;2023-06-22T09:34:23;12.13;;;8.90;;
3901;SDS011;1966;49.908;9.156;2023-06-22T09:39:22;10.53;;;8.97;;
3901;SDS011;1966;49.908;9.156;2023-06-22T09:44:21;9.73;;;8.73;;
3901;SDS011;1966;49.908;9.156;2023-06-22T09:49:22;9.27;;;8.43;;
3901;SDS011;1966;49.908;9.156;2023-06-22T09:54:22;11.33;;;8.03;;
3901;SDS011;1966;49.908;9.156;2023-06-22T09:59:21;10.13;;;9.20;;
3901;SDS011;1966;49.908;9.156;2023-06-22T10:04:22;8.87;;;8.07;;
3901;SDS011;1966;49.908;9.156;2023-06-22T10:09:22;9.37;;;8.30;;
3901;SDS011;1966;49.908;9.156;2023-06-22T10:14:21;9.45;;;8.60;;
3901;SDS011;1966;49.908;9.156;2023-06-22T10:19:23;8.65;;;7.88;;
3901;SDS011;1966;49.908;9.156;2023-06-22T10:24:23;12.43;;;7.88;;
3901;SDS011;1966;49.908;9.156;2023-06-22T10:29:22;8.90;;;8.10;;
3901;SDS011;1966;49.908;9.156;2023-06-22T10:34:21;10.10;;;9.10;;
3901;SDS011;1966;49.908;9.156;2023-06-22T10:39:22;8.07;;;7.38;;
3901;SDS011;1966;49.908;9.156;2023-06-22T10:44:21;7.93;;;7.15;;
3901;SDS011;1966;49.908;9.156;2023-06-22T10:49:20;9.95;;;7.47;;
3901;SDS011;1966;49.908;9.156;2023-06-22T10:54:19;8.32;;;7.53;;
3901;SDS011;1966;49.908;9.156;2023-06-22T10:59:20;14.50;;;7.47;;
3901;SDS011;1966;49.908;9.156;2023-06-22T11:04:21;8.38;;;7.53;;
3901;SDS011;1966;49.908;9.156;2023-06-22T11:09:21;9.73;;;8.82;;
3901;SDS011;1966;49.908;9.156;2023-06-22T11:14:21;10.00;;;8.27;;
3901;SDS011;1966;49.908;9.156;2023-06-22T11:19:21;9.50;;;7.60;;
3901;SDS011;1966;49.908;9.156;2023-06-22T11:24:20;9.25;;;8.25;;
3901;SDS011;1966;49.908;9.156;2023-06-22T11:29:19;9.75;;;8.85;;
3901;SDS011;1966;49.908;9.156;2023-06-22T11:34:20;16.60;;;8.47;;
3901;SDS011;1966;49.908;9.156;2023-06-22T11:39:19;9.10;;;7.80;;
3901;SDS011;1966;49.908;9.156;2023-06-22T11:44:18;9.70;;;8.70;;
3901;SDS011;1966;49.908;9.156;2023-06-22T11:49:17;8.50;;;7.68;;
3901;SDS011;1966;49.908;9.156;2023-06-22T11:54:18;8.85;;;7.45;;
3901;SDS011;1966;49.908;9.156;2023-06-22T11:59:17;8.73;;;7.90;;
3901;SDS011;1966;49.908;9.156;2023-06-22T12:04:17;8.10;;;7.40;;
3901;SDS011;1966;49.908;9.156;2023-06-22T12:09:16;8.50;;;7.60;;
3901;SDS011;1966;49.908;9.156;2023-06-22T12:14:16;12.05;;;8.05;;
3901;SDS011;1966;49.908;9.156;2023-06-22T12:19:16;11.43;;;8.13;;
3901;SDS011;1966;49.908;9.156;2023-06-22T12:24:15;11.40;;;7.50;;
3901;SDS011;1966;49.908;9.156;2023-06-22T12:29:14;8.63;;;7.00;;
3901;SDS011;1966;49.908;9.156;2023-06-22T12:34:15;8.27;;;6.47;;
3901;SDS011;1966;49.908;9.156;2023-06-22T12:39:14;16.05;;;6.50;;
3901;SDS011;1966;49.908;9.156;2023-06-22T12:44:13;7.22;;;5.63;;
3901;SDS011;1966;49.908;9.156;2023-06-22T12:49:13;7.15;;;5.35;;
3901;SDS011;1966;49.908;9.156;2023-06-22T12:54:13;7.40;;;5.55;;
3901;SDS011;1966;49.908;9.156;2023-06-22T12:59:12;6.50;;;5.90;;
3901;SDS011;1966;49.908;9.156;2023-06-22T13:04:12;6.03;;;5.43;;
3901;SDS011;1966;49.908;9.156;2023-06-22T13:09:14;6.95;;;6.00;;
3901;SDS011;1966;49.908;9.156;2023-06-22T13:14:14;12.63;;;5.82;;
3901;SDS011;1966;49.908;9.156;2023-06-22T13:19:14;7.05;;;6.03;;
3901;SDS011;1966;49.908;9.156;2023-06-22T13:24:14;9.20;;;6.63;;
3901;SDS011;1966;49.908;9.156;2023-06-22T13:29:14;8.63;;;6.05;;
3901;SDS011;1966;49.908;9.156;2023-06-22T13:34:13;7.40;;;5.38;;
3901;SDS011;1966;49.908;9.156;2023-06-22T13:39:13;6.38;;;5.50;;
3901;SDS011;1966;49.908;9.156;2023-06-22T13:44:13;6.65;;;5.97;;
3901;SDS011;1966;49.908;9.156;2023-06-22T13:49:12;7.18;;;5.35;;
3901;SDS011;1966;49.908;9.156;2023-06-22T13:54:12;8.00;;;5.00;;
3901;SDS011;1966;49.908;9.156;2023-06-22T13:59:11;8.40;;;5.25;;
3901;SDS011;1966;49.908;9.156;2023-06-22T14:04:12;7.32;;;4.70;;
3901;SDS011;1966;49.908;9.156;2023-06-22T14:09:11;5.20;;;4.70;;
3901;SDS011;1966;49.908;9.156;2023-06-22T14:14:10;7.40;;;5.25;;
3901;SDS011;1966;49.908;9.156;2023-06-22T14:19:09;4.90;;;4.50;;
3901;SDS011;1966;49.908;9.156;2023-06-22T14:24:10;7.30;;;4.45;;
3901;SDS011;1966;49.908;9.156;2023-06-22T14:29:09;5.30;;;4.65;;
3901;SDS011;1966;49.908;9.156;2023-06-22T14:34:09;4.05;;;3.65;;
3901;SDS011;1966;49.908;9.156;2023-06-22T14:39:08;6.63;;;4.07;;
3901;SDS011;1966;49.908;9.156;2023-06-22T14:44:09;4.95;;;4.18;;
3901;SDS011;1966;49.908;9.156;2023-06-22T14:49:08;7.30;;;4.80;;
3901;SDS011;1966;49.908;9.156;2023-06-22T14:54:07;9.27;;;5.07;;
3901;SDS011;1966;49.908;9.156;2023-06-22T14:59:06;9.52;;;5.78;;
3901;SDS011;1966;49.908;9.156;2023-06-22T15:04:08;6.68;;;4.85;;
3901;SDS011;1966;49.908;9.156;2023-06-22T15:09:07;5.70;;;5.10;;
3901;SDS011;1966;49.908;9.156;2023-06-22T15:14:06;6.75;;;6.03;;
3901;SDS011;1966;49.908;9.156;2023-06-22T15:19:05;7.20;;;5.78;;
3901;SDS011;1966;49.908;9.156;2023-06-22T15:24:06;7.30;;;6.03;;
3901;SDS011;1966;49.908;9.156;2023-06-22T15:29:05;6.03;;;5.25;;
3901;SDS011;1966;49.908;9.156;2023-06-22T15:34:04;11.70;;;5.40;;
3901;SDS011;1966;49.908;9.156;2023-06-22T15:39:05;16.20;;;6.28;;
3901;SDS011;1966;49.908;9.156;2023-06-22T15:44:05;13.50;;;5.68;;
3901;SDS011;1966;49.908;9.156;2023-06-22T15:49:04;8.20;;;6.43;;
3901;SDS011;1966;49.908;9.156;2023-06-22T15:54:03;10.93;;;6.25;;
3901;SDS011;1966;49.908;9.156;2023-06-22T15:59:04;13.30;;;6.68;;
3901;SDS011;1966;49.908;9.156;2023-06-22T16:04:03;13.73;;;6.40;;
3901;SDS011;1966;49.908;9.156;2023-06-22T16:09:03;9.00;;;6.60;;
3901;SDS011;1966;49.908;9.156;2023-06-22T16:14:02;9.50;;;6.20;;
3901;SDS011;1966;49.908;9.156;2023-06-22T16:19:03;12.35;;;5.95;;
3901;SDS011;1966;49.908;9.156;2023-06-22T16:24:02;11.15;;;5.80;;
3901;SDS011;1966;49.908;9.156;2023-06-22T16:29:02;7.68;;;5.45;;
3901;SDS011;1966;49.908;9.156;2023-06-22T16:34:01;11.60;;;5.97;;
3901;SDS011;1966;49.908;9.156;2023-06-22T16:39:02;16.53;;;6.77;;
3901;SDS011;1966;49.908;9.156;2023-06-22T16:44:02;13.80;;;6.10;;
3901;SDS011;1966;49.908;9.156;2023-06-22T16:49:03;10.33;;;6.40;;
3901;SDS011;1966;49.908;9.156;2023-06-22T16:54:04;14.33;;;7.07;;
3901;SDS011;1966;49.908;9.156;2023-06-22T16:59:04;10.53;;;6.33;;
3901;SDS011;1966;49.908;9.156;2023-06-22T17:04:04;8.20;;;5.70;;
3901;SDS011;1966;49.908;9.156;2023-06-22T17:09:06;9.90;;;6.87;;
3901;SDS011;1966;49.908;9.156;2023-06-22T17:14:09;14.20;;;6.40;;
3901;SDS011;1966;49.908;9.156;2023-06-22T17:19:09;13.40;;;6.33;;
3901;SDS011;1966;49.908;9.156;2023-06-22T17:24:10;10.20;;;6.87;;
3901;SDS011;1966;49.908;9.156;2023-06-22T17:29:11;13.03;;;7.00;;
3901;SDS011;1966;49.908;9.156;2023-06-22T17:34:11;11.07;;;6.93;;
3901;SDS011;1966;49.908;9.156;2023-06-22T17:39:14;11.30;;;7.13;;
3901;SDS011;1966;49.908;9.156;2023-06-22T17:44:13;11.10;;;6.77;;
3901;SDS011;1966;49.908;9.156;2023-06-22T17:49:16;16.13;;;7.47;;
3901;SDS011;1966;49.908;9.156;2023-06-22T17:54:17;18.57;;;7.70;;
3901;SDS011;1966;49.908;9.156;2023-06-22T17:59:17;17.23;;;6.90;;
3901;SDS011;1966;49.908;9.156;2023-06-22T18:04:18;13.33;;;6.50;;
3901;SDS011;1966;49.908;9.156;2023-06-22T18:09:19;21.50;;;6.20;;
3901;SDS011;1966;49.908;9.156;2023-06-22T18:14:19;11.07;;;7.00;;
3901;SDS011;1966;49.908;9.156;2023-06-22T18:19:18;12.33;;;6.80;;
3901;SDS011;1966;49.908;9.156;2023-06-22T18:24:19;17.20;;;8.00;;
3901;SDS011;1966;49.908;9.156;2023-06-22T18:29:20;9.77;;;6.37;;
3901;SDS011;1966;49.908;9.156;2023-06-22T18:34:19;14.37;;;6.40;;
3901;SDS011;1966;49.908;9.156;2023-06-22T18:39:20;14.97;;;6.30;;
3901;SDS011;1966;49.908;9.156;2023-06-22T18:44:20;10.53;;;6.10;;
3901;SDS011;1966;49.908;9.156;2023-06-22T18:49:23;15.37;;;5.43;;
3901;SDS011;1966;49.908;9.156;2023-06-22T18:54:31;9.40;;;4.87;;
3901;SDS011;1966;49.908;9.156;2023-06-22T18:59:44;13.40;;;4.83;;
3901;SDS011;1966;49.908;9.156;2023-06-22T19:04:46;13.43;;;4.37;;
3901;SDS011;1966;49.908;9.156;2023-06-22T19:09:52;11.67;;;4.70;;
3901;SDS011;1966;49.908;9.156;2023-06-22T19:15:12;9.30;;;4.50;;
3901;SDS011;1966;49.908;9.156;2023-06-22T19:20:11;9.67;;;4.33;;
3901;SDS011;1966;49.908;9.156;2023-06-22T19:25:18;8.07;;;4.00;;
3901;SDS011;1966;49.908;9.156;2023-06-22T19:30:18;7.37;;;4.00;;
3901;SDS011;1966;49.908;9.156;2023-06-22T19:35:18;8.00;;;4.40;;
3901;SDS011;1966;49.908;9.156;2023-06-22T19:40:18;9.93;;;3.93;;
3901;SDS011;1966;49.908;9.156;2023-06-22T19:45:18;6.03;;;4.00;;
3901;SDS011;1966;49.908;9.156;2023-06-22T19:50:17;10.53;;;4.00;;
3901;SDS011;1966;49.908;9.156;2023-06-22T19:55:16;7.70;;;3.67;;
3901;SDS011;1966;49.908;9.156;2023-06-22T20:00:20;7.60;;;3.90;;
3901;SDS011;1966;49.908;9.156;2023-06-22T20:05:20;11.30;;;4.40;;
3901;SDS011;1966;49.908;9.156;2023-06-22T20:10:20;12.90;;;4.40;;
3901;SDS011;1966;49.908;9.156;2023-06-22T20:15:22;8.93;;;4.37;;
3901;SDS011;1966;49.908;9.156;2023-06-22T20:20:22;6.17;;;3.97;;
3901;SDS011;1966;49.908;9.156;2023-06-22T20:25:21;8.17;;;4.13;;
3901;SDS011;1966;49.908;9.156;2023-06-22T20:30:22;11.13;;;4.03;;
3901;SDS011;1966;49.908;9.156;2023-06-22T20:35:23;6.30;;;3.83;;
3901;SDS011;1966;49.908;9.156;2023-06-22T20:40:22;7.80;;;3.40;;
3901;SDS011;1966;49.908;9.156;2023-06-22T20:45:27;7.30;;;3.70;;
3901;SDS011;1966;49.908;9.156;2023-06-22T20:50:27;7.67;;;3.83;;
3901;SDS011;1966;49.908;9.156;2023-06-22T20:55:28;4.97;;;3.53;;
3901;SDS011;1966;49.908;9.156;2023-06-22T21:00:28;2.90;;;2.60;;
3901;SDS011;1966;49.908;9.156;2023-06-22T21:05:29;3.70;;;2.93;;
3901;SDS011;1966;49.908;9.156;2023-06-22T21:10:28;4.43;;;2.53;;
3901;SDS011;1966;49.908;9.156;2023-06-22T21:15:28;2.90;;;2.17;;
3901;SDS011;1966;49.908;9.156;2023-06-22T21:20:28;8.33;;;1.97;;
3901;SDS011;1966;49.908;9.156;2023-06-22T21:25:27;2.77;;;2.00;;
3901;SDS011;1966;49.908;9.156;2023-06-22T21:30:26;1.57;;;1.47;;
3901;SDS011;1966;49.908;9.156;2023-06-22T21:35:27;1.90;;;1.63;;
3901;SDS011;1966;49.908;9.156;2023-06-22T21:40:26;2.90;;;1.70;;
3901;SDS011;1966;49.908;9.156;2023-06-22T21:45:26;1.67;;;1.57;;
3901;SDS011;1966;49.908;9.156;2023-06-22T21:50:25;3.30;;;1.90;;
3901;SDS011;1966;49.908;9.156;2023-06-22T21:55:26;1.73;;;1.63;;
3901;SDS011;1966;49.908;9.156;2023-06-22T22:00:25;1.70;;;1.60;;
3901;SDS011;1966;49.908;9.156;2023-06-22T22:05:24;2.10;;;1.63;;
3901;SDS011;1966;49.908;9.156;2023-06-22T22:10:23;2.50;;;1.40;;
3901;SDS011;1966;49.908;9.156;2023-06-22T22:15:24;2.77;;;1.70;;
3901;SDS011;1966;49.908;9.156;2023-06-22T22:20:23;1.50;;;1.40;;
3901;SDS011;1966;49.908;9.156;2023-06-22T22:25:23;3.47;;;1.40;;
3901;SDS011;1966;49.908;9.156;2023-06-22T22:30:25;2.10;;;1.40;;
3901;SDS011;1966;49.908;9.156;2023-06-22T22:35:25;1.53;;;1.40;;
3901;SDS011;1966;49.908;9.156;2023-06-22T22:40:24;1.50;;;1.40;;
3901;SDS011;1966;49.908;9.156;2023-06-22T22:45:23;1.40;;;1.30;;
3901;SDS011;1966;49.908;9.156;2023-06-22T22:50:24;1.77;;;1.30;;
3901;SDS011;1966;49.908;9.156;2023-06-22T22:55:23;1.43;;;1.30;;
3901;SDS011;1966;49.908;9.156;2023-06-22T23:00:22;1.47;;;1.37;;
3901;SDS011;1966;49.908;9.156;2023-06-22T23:05:21;2.20;;;1.37;;
3901;SDS011;1966;49.908;9.156;2023-06-22T23:10:22;2.37;;;1.40;;
3901;SDS011;1966;49.908;9.156;2023-06-22T23:15:21;1.30;;;1.20;;
3901;SDS011;1966;49.908;9.156;2023-06-22T23:20:21;2.07;;;1.40;;
3901;SDS011;1966;49.908;9.156;2023-06-22T23:25:20;2.83;;;1.30;;
3901;SDS011;1966;49.908;9.156;2023-06-22T23:30:21;1.20;;;1.10;;
3901;SDS011;1966;49.908;9.156;2023-06-22T23:35:21;1.13;;;1.10;;
3901;SDS011;1966;49.908;9.156;2023-06-22T23:40:20;1.30;;;1.10;;
3901;SDS011;1966;49.908;9.156;2023-06-22T23:45:21;2.20;;;1.30;;
3901;SDS011;1966;49.908;9.156;2023-06-22T23:50:20;2.30;;;1.20;;
3901;SDS011;1966;49.908;9.156;2023-06-22T23:55:20;3.80;;;1.60;;
